Accueil
METAR-TAF:

METAR-TAF

Aéroports :

Wiener Neustadt, Autriche

latitude: 47-50-36N, longitude: 016-15-29E, altitude: 272 m

Observation

Le bulletin a été fait il y a 6 heures et 48 minutes, à 17:00 UTC
Vent 12 kt de sud-est
Température
Pression

METAR: LOAN 271700Z 14012KT 20KM FEW040CU SCT120AS

Heure: 00:48 (23:48 UTC)

Prévision

Le bulletin a été fait il y a 9 heures et 43 minutes, à 14:05 UTC
Prévision valable du 27 à 14 UTC au 27 à 21 UTC
Vent 8 kt de sud/sud-est
Visibilité 10 km ou plus
Nuages épars à une hauteur de 4000 ft

TAF: LOAN 271405Z 2714/2721 15008KT 9999 SCT040

Observations et prévisions météorologiques de plus de 4000 aéroports (messages METAR et TAF).

Les stations disponibles sont représentées par des disques jaunes et rouges sur la carte.

Passer la souris dessus pour voir le nom de la station.

Cliquer dessus pour voir les observations et prévisions météorologiques.

Pour changer de carte: cliquez sur les boutons verts avec une croix noire pour zoomer, sur le bouton vert avec un tiret pour effectuer un zoom arrière, ou sur les flèches vertes pour les cartes adjacentes.


METAR-TAF: